North River — WYR2549 — position and weather

sailwx.info

Track history (hours):
 
Tides and Currents Weather Stations Pressure Air Temp Water Temp Dewpoint Dewpoint Depression Visibility Wind Speed Wind Dir Waves Ship Positions

North River

Owner: CITY OF NEW YORK, Brooklyn, NY. More information available from US FCC via Universal Licensing System and Coast Guard Vessel Documentation Center.

Last reported at 2014-Nov-28 19:32 UTC. Time now 2014-Nov-29 00:10 UTC.
Position N 40°47' W 073°56'.

Length 78 m.

Type: Tanker. MMSI: 367074110.

Date/timePositionNaut miles runAvg speedWind from/ knotsBaromVisibWave heightAir tempDewpointWater temp
2014-Nov-28 19:32N 40°47' W 073°56'3 3.4
2014-Nov-28 18:33N 40°46' W 074°00'4 1.9
2014-Nov-28 16:24N 40°50' W 073°58'7 8.6
2014-Nov-28 15:33N 40°42' W 073°59'7 0.2
2014-Nov-26 22:10N 40°48' W 073°54'5 8.4
2014-Nov-26 21:34N 40°44' W 073°58'5 5.3
2014-Nov-26 20:33N 40°50' W 073°58'0 0.2
2014-Nov-26 18:29N 40°49' W 073°58'4 4.2
2014-Nov-26 17:34N 40°45' W 073°58'3 1.6
2014-Nov-26 15:21N 40°47' W 073°54'0 0.0
2014-Nov-26 13:26N 40°47' W 073°54'3 0.2
2014-Nov-25 23:30N 40°46' W 073°57'3 3.1
2014-Nov-25 22:34N 40°49' W 073°59'2 0.7
2014-Nov-25 20:28N 40°47' W 073°59'910.2
2014-Nov-25 19:33N 40°39' W 074°05'2 1.9
2014-Nov-25 18:33N 40°38' W 074°08'0 0.0
2014-Nov-25 17:33N 40°38' W 074°08'8 7.9
2014-Nov-25 16:33N 40°45' W 074°01'6 2.5
2014-Nov-25 14:18N 40°50' W 073°58'710.1
2014-Nov-25 13:33N 40°42' W 073°60'7 3.2
2014-Nov-25 11:27N 40°47' W 073°54'1 0.1
2014-Nov-24 21:31N 40°47' W 073°55'1010.8
2014-Nov-24 20:34N 40°39' W 074°03'5 3.8
2014-Nov-24 19:21N 40°43' W 074°07'0 0.0
2014-Nov-24 18:11N 40°43' W 074°07'0 0.0
2014-Nov-24 17:33N 40°43' W 074°07'4 4.3
2014-Nov-24 16:33N 40°39' W 074°05'2 2.0
2014-Nov-24 15:33N 40°39' W 074°02'0 0.0
2014-Nov-24 14:33N 40°39' W 074°02'8 7.6
2014-Nov-24 13:34N 40°45' W 073°58'3 0.2
2014-Nov-23 18:33N 40°47' W 073°53'5 4.6
2014-Nov-23 17:33N 40°44' W 073°58'6 2.5
2014-Nov-23 15:23N 40°50' W 073°58'3 3.6
2014-Nov-23 14:31N 40°47' W 073°60'3 2.7
2014-Nov-23 13:30N 40°47' W 073°56'2 2.1
2014-Nov-23 12:33N 40°47' W 073°54'1 0.0
2014-Nov-21 21:33N 40°48' W 073°54'1312.9
2014-Nov-21 20:33N 40°39' W 074°05'4 4.1
2014-Nov-21 19:33N 40°43' W 074°07'0 0.0
2014-Nov-21 18:32N 40°43' W 074°07'0 0.4
2014-Nov-21 17:33N 40°42' W 074°07'4 3.6
2014-Nov-21 16:33N 40°39' W 074°06'3 3.1
2014-Nov-21 15:33N 40°39' W 074°02'0 0.0
2014-Nov-21 14:33N 40°39' W 074°02'9 8.7
2014-Nov-21 13:29N 40°47' W 073°56'2 0.1
2014-Nov-20 22:24N 40°48' W 073°54'1113.0
2014-Nov-20 21:33N 40°39' W 074°02'0 0.3
2014-Nov-20 20:33N 40°39' W 074°02'0 0.0
2014-Nov-20 19:33N 40°39' W 074°02'5 5.2
2014-Nov-20 18:34N 40°43' W 073°58'1 0.1
2014-Nov-19 22:33N 40°42' W 073°60'9 8.9
2014-Nov-19 21:33N 40°34' W 073°56'4 1.2
2014-Nov-19 18:33N 40°37' W 073°53'3 3.3
2014-Nov-19 17:33N 40°35' W 073°50'0 0.0
2014-Nov-19 16:33N 40°35' W 073°50'10 5.1
2014-Nov-19 14:33N 40°38' W 074°03'12 0.8
2014-Nov-18 23:15N 40°48' W 073°54'6 8.6
2014-Nov-18 22:33N 40°43' W 073°58'5 5.5
2014-Nov-18 21:33N 40°39' W 074°02'0 0.1
2014-Nov-18 20:33N 40°39' W 074°02'4 4.2
2014-Nov-18 19:33N 40°38' W 074°08'  
Track history (hours):
 
Tides and Currents Weather Stations Pressure Air Temp Water Temp Dewpoint Dewpoint Depression Visibility Wind Speed Wind Dir Waves Ship Positions

North River

Owner: CITY OF NEW YORK, Brooklyn, NY. More information available from US FCC via Universal Licensing System and Coast Guard Vessel Documentation Center.

Last reported at 2014-Nov-28 19:32 UTC. Time now 2014-Nov-29 00:10 UTC.
Position N 40°47' W 073°56'.

Length 78 m.

Type: Tanker. MMSI: 367074110.

Date/timePositionNaut miles runAvg speedWind from/ knotsBaromVisibWave heightAir tempDewpointWater temp
2014-Nov-28 19:32N 40°47' W 073°56'3 3.4
2014-Nov-28 18:33N 40°46' W 074°00'4 1.9
2014-Nov-28 16:24N 40°50' W 073°58'7 8.6
2014-Nov-28 15:33N 40°42' W 073°59'7 0.2
2014-Nov-26 22:10N 40°48' W 073°54'5 8.4
2014-Nov-26 21:34N 40°44' W 073°58'5 5.3
2014-Nov-26 20:33N 40°50' W 073°58'0 0.2
2014-Nov-26 18:29N 40°49' W 073°58'4 4.2
2014-Nov-26 17:34N 40°45' W 073°58'3 1.6
2014-Nov-26 15:21N 40°47' W 073°54'0 0.0
2014-Nov-26 13:26N 40°47' W 073°54'3 0.2
2014-Nov-25 23:30N 40°46' W 073°57'3 3.1
2014-Nov-25 22:34N 40°49' W 073°59'2 0.7
2014-Nov-25 20:28N 40°47' W 073°59'910.2
2014-Nov-25 19:33N 40°39' W 074°05'2 1.9
2014-Nov-25 18:33N 40°38' W 074°08'0 0.0
2014-Nov-25 17:33N 40°38' W 074°08'8 7.9
2014-Nov-25 16:33N 40°45' W 074°01'6 2.5
2014-Nov-25 14:18N 40°50' W 073°58'710.1
2014-Nov-25 13:33N 40°42' W 073°60'7 3.2
2014-Nov-25 11:27N 40°47' W 073°54'1 0.1
2014-Nov-24 21:31N 40°47' W 073°55'1010.8
2014-Nov-24 20:34N 40°39' W 074°03'5 3.8
2014-Nov-24 19:21N 40°43' W 074°07'0 0.0
2014-Nov-24 18:11N 40°43' W 074°07'0 0.0
2014-Nov-24 17:33N 40°43' W 074°07'4 4.3
2014-Nov-24 16:33N 40°39' W 074°05'2 2.0
2014-Nov-24 15:33N 40°39' W 074°02'0 0.0
2014-Nov-24 14:33N 40°39' W 074°02'8 7.6
2014-Nov-24 13:34N 40°45' W 073°58'3 0.2
2014-Nov-23 18:33N 40°47' W 073°53'5 4.6
2014-Nov-23 17:33N 40°44' W 073°58'6 2.5
2014-Nov-23 15:23N 40°50' W 073°58'3 3.6
2014-Nov-23 14:31N 40°47' W 073°60'3 2.7
2014-Nov-23 13:30N 40°47' W 073°56'2 2.1
2014-Nov-23 12:33N 40°47' W 073°54'1 0.0
2014-Nov-21 21:33N 40°48' W 073°54'1312.9
2014-Nov-21 20:33N 40°39' W 074°05'4 4.1
2014-Nov-21 19:33N 40°43' W 074°07'0 0.0
2014-Nov-21 18:32N 40°43' W 074°07'0 0.4
2014-Nov-21 17:33N 40°42' W 074°07'4 3.6
2014-Nov-21 16:33N 40°39' W 074°06'3 3.1
2014-Nov-21 15:33N 40°39' W 074°02'0 0.0
2014-Nov-21 14:33N 40°39' W 074°02'9 8.7
2014-Nov-21 13:29N 40°47' W 073°56'2 0.1
2014-Nov-20 22:24N 40°48' W 073°54'1113.0
2014-Nov-20 21:33N 40°39' W 074°02'0 0.3
2014-Nov-20 20:33N 40°39' W 074°02'0 0.0
2014-Nov-20 19:33N 40°39' W 074°02'5 5.2
2014-Nov-20 18:34N 40°43' W 073°58'1 0.1
2014-Nov-19 22:33N 40°42' W 073°60'9 8.9
2014-Nov-19 21:33N 40°34' W 073°56'4 1.2
2014-Nov-19 18:33N 40°37' W 073°53'3 3.3
2014-Nov-19 17:33N 40°35' W 073°50'0 0.0
2014-Nov-19 16:33N 40°35' W 073°50'10 5.1
2014-Nov-19 14:33N 40°38' W 074°03'12 0.8
2014-Nov-18 23:15N 40°48' W 073°54'6 8.6
2014-Nov-18 22:33N 40°43' W 073°58'5 5.5
2014-Nov-18 21:33N 40°39' W 074°02'0 0.1
2014-Nov-18 20:33N 40°39' W 074°02'4 4.2
2014-Nov-18 19:33N 40°38' W 074°08'  

Dump ship's entire track history